Time;durP1;ratioP1;P1;durP2;ratioP2;P2;SDS_P1;SDS_P2;PMS_P1;PMS_P2;Temp;Humidity;BMP_temperature;BMP_pressure;BME280_temperature;BME280_humidity;BME280_pressure;Samples;Min_cycle;Max_cycle;Signal;HPM_P1;HPM_P2
2022/05/23 00:02:07;;;;;;;6.97;3.13;;;18.50;93.30;;;;;;5031400;28;20118;-83
2022/05/23 00:04:33;;;;;;;4.13;2.50;;;18.50;93.30;;;;;;5032307;28;20172;-83
2022/05/23 00:06:59;;;;;;;11.10;3.47;;;18.50;93.30;;;;;;5032165;28;20087;-83
2022/05/23 00:09:26;;;;;;;6.30;3.10;;;18.50;93.30;;;;;;5029737;28;20493;-83
2022/05/23 00:11:53;;;;;;;9.55;2.97;;;18.50;93.30;;;;;;5032111;28;20029;-83
2022/05/23 00:14:21;;;;;;;;;;;18.50;93.40;;;;;;5032405;28;20026;-83
2022/05/23 00:16:49;;;;;;;11.18;3.78;;;18.50;93.50;;;;;;5030836;28;20277;-83
2022/05/23 00:19:16;;;;;;;5.35;2.55;;;18.50;93.60;;;;;;5032084;28;20041;-83
2022/05/23 00:21:45;;;;;;;6.38;2.92;;;18.50;93.70;;;;;;5032086;28;20052;-84
2022/05/23 00:24:13;;;;;;;6.40;2.60;;;18.40;93.70;;;;;;5031869;28;20430;-83
2022/05/23 00:26:40;;;;;;;6.90;2.70;;;18.50;93.80;;;;;;5030427;28;20482;-83
2022/05/23 00:29:06;;;;;;;7.00;2.80;;;18.50;93.80;;;;;;5031689;28;20030;-83
2022/05/23 00:31:32;;;;;;;6.05;2.90;;;18.40;93.80;;;;;;5031945;28;20041;-83
2022/05/23 00:36:59;;;;;;;6.63;2.80;;;18.40;93.90;;;;;;4953878;28;20066;-83
2022/05/23 00:39:24;;;;;;;6.82;2.90;;;18.40;94.00;;;;;;5018509;28;20096;-83
2022/05/23 00:44:36;;;;;;;8.35;3.58;;;18.40;94.00;;;;;;5031477;28;20109;-83
2022/05/23 00:47:19;;;;;;;5.32;2.75;;;18.40;94.10;;;;;;5031469;28;20119;-83
2022/05/23 00:49:45;;;;;;;7.00;3.15;;;18.40;94.20;;;;;;5031184;28;20033;-83
2022/05/23 00:52:23;;;;;;;8.73;3.33;;;18.30;94.40;;;;;;5031433;28;20489;-83
2022/05/23 00:54:51;;;;;;;6.38;3.20;;;18.30;94.50;;;;;;5030032;28;20103;-83
2022/05/23 00:57:21;;;;;;;5.20;3.20;;;18.30;94.60;;;;;;5031203;28;20028;-83
2022/05/23 00:59:48;;;;;;;7.00;3.22;;;18.30;94.60;;;;;;5029826;28;20037;-83
2022/05/23 01:02:15;;;;;;;6.60;3.05;;;18.30;94.60;;;;;;5030110;28;20029;-83
2022/05/23 01:04:41;;;;;;;7.15;3.20;;;18.30;94.60;;;;;;5031415;28;20056;-83
2022/05/23 01:07:08;;;;;;;7.32;3.20;;;18.30;94.60;;;;;;5013475;28;20083;-83
2022/05/23 01:09:35;;;;;;;7.38;3.17;;;18.30;94.60;;;;;;5030074;28;20033;-83
2022/05/23 01:12:05;;;;;;;8.75;3.20;;;18.30;94.60;;;;;;5030013;28;20504;-83
2022/05/23 01:14:47;;;;;;;7.10;3.08;;;18.30;94.70;;;;;;5031408;28;20458;-83
2022/05/23 01:17:13;;;;;;;7.20;3.13;;;18.20;94.80;;;;;;5029738;28;20553;-83
2022/05/23 01:19:39;;;;;;;6.45;2.63;;;18.20;94.90;;;;;;5029434;28;20140;-83
2022/05/23 01:22:22;;;;;;;7.93;3.05;;;18.20;94.90;;;;;;5013217;28;20030;-83
2022/05/23 01:24:59;;;;;;;5.70;2.97;;;18.20;95.00;;;;;;5013227;28;20252;-83
2022/05/23 01:27:28;;;;;;;5.72;3.05;;;18.20;94.90;;;;;;5029478;28;20079;-83
2022/05/23 01:29:54;;;;;;;;;;;18.20;94.90;;;;;;5029947;28;20025;-83
2022/05/23 01:32:20;;;;;;;7.70;2.90;;;18.20;95.00;;;;;;5029607;28;19909;-83
2022/05/23 01:34:49;;;;;;;5.20;2.53;;;18.20;95.10;;;;;;5029661;28;20032;-83
2022/05/23 01:37:18;;;;;;;4.55;2.50;;;18.20;95.10;;;;;;5029279;28;20444;-83
2022/05/23 01:40:16;;;;;;;4.72;2.58;;;18.20;95.20;;;;;;5025907;28;20209;-83
2022/05/23 01:43:04;;;;;;;7.22;3.30;;;18.20;95.30;;;;;;5029629;28;20120;-83
2022/05/23 01:45:34;;;;;;;5.53;2.95;;;18.20;95.40;;;;;;5029342;28;20083;-83
2022/05/23 01:48:13;;;;;;;4.72;2.60;;;18.20;95.40;;;;;;5029568;28;20084;-83
2022/05/23 01:50:38;;;;;;;4.95;2.60;;;18.20;95.50;;;;;;5029304;28;20025;-83
2022/05/23 01:53:08;;;;;;;5.07;2.70;;;18.20;95.50;;;;;;5029506;28;20026;-83
2022/05/23 01:55:44;;;;;;;6.38;2.75;;;18.20;95.50;;;;;;5029222;28;20033;-83
2022/05/23 01:58:14;;;;;;;5.18;2.90;;;18.10;95.70;;;;;;5029265;28;20032;-83
2022/05/23 02:03:34;;;;;;;5.57;2.60;;;18.10;95.60;;;;;;5029449;28;20087;-83
2022/05/23 02:06:00;;;;;;;5.85;3.30;;;18.10;95.60;;;;;;5029359;28;20033;-83
2022/05/23 02:08:25;;;;;;;4.88;2.83;;;18.10;95.50;;;;;;5030701;28;20546;-83
2022/05/23 02:10:53;;;;;;;4.82;2.30;;;18.10;95.50;;;;;;5029056;28;20053;-83
2022/05/23 02:13:24;;;;;;;6.97;2.63;;;18.10;95.60;;;;;;5013712;28;20442;-84
2022/05/23 02:15:50;;;;;;;6.03;3.20;;;18.10;95.60;;;;;;5029217;28;20124;-84
2022/05/23 02:18:39;;;;;;;6.10;3.00;;;18.10;95.60;;;;;;5027338;28;20436;-83
2022/05/23 02:21:06;;;;;;;5.18;2.30;;;18.10;95.50;;;;;;5029105;28;20026;-84
2022/05/23 02:23:32;;;;;;;4.43;2.40;;;18.10;95.50;;;;;;5029339;28;20025;-83
2022/05/23 02:25:57;;;;;;;6.43;2.72;;;18.10;95.50;;;;;;5030269;28;20548;-83
2022/05/23 02:28:42;;;;;;;4.28;2.40;;;18.10;95.40;;;;;;5030463;28;20064;-83
2022/05/23 02:31:08;;;;;;;5.65;2.50;;;18.10;95.40;;;;;;5029152;28;20116;-83
2022/05/23 02:33:48;;;;;;;4.82;2.22;;;18.10;95.40;;;;;;5032115;28;20459;-83
2022/05/23 02:36:35;;;;;;;3.92;2.55;;;18.10;95.50;;;;;;5019152;28;20111;-83
2022/05/23 02:39:03;;;;;;;5.47;2.42;;;18.10;95.80;;;;;;5032737;28;20024;-83
2022/05/23 02:41:29;;;;;;;4.68;2.20;;;18.10;95.60;;;;;;5032892;28;20026;-83
2022/05/23 02:43:55;;;;;;;5.93;3.17;;;18.10;95.60;;;;;;5032962;28;20029;-83
2022/05/23 02:46:24;;;;;;;8.02;3.00;;;18.10;95.70;;;;;;5032517;28;20034;-83
2022/05/23 02:48:52;;;;;;;5.07;2.77;;;18.10;95.70;;;;;;5032651;28;20045;-83
2022/05/23 02:51:18;;;;;;;5.32;2.30;;;18.00;96.00;;;;;;5016280;28;20029;-83
2022/05/23 02:53:48;;;;;;;5.13;2.42;;;18.00;95.90;;;;;;5032838;28;20075;-83
2022/05/23 02:56:16;;;;;;;5.22;2.78;;;18.00;96.10;;;;;;5033596;28;20030;-83
2022/05/23 02:58:41;;;;;;;4.25;2.40;;;18.00;96.20;;;;;;5032299;28;20029;-83
2022/05/23 03:01:10;;;;;;;5.10;2.28;;;18.00;96.30;;;;;;5032536;28;20377;-83
2022/05/23 03:03:37;;;;;;;8.35;2.63;;;17.90;96.50;;;;;;5032633;28;20498;-83
2022/05/23 03:06:05;;;;;;;5.10;2.58;;;18.00;96.60;;;;;;5032489;28;20048;-83
2022/05/23 03:08:32;;;;;;;5.85;2.72;;;17.90;96.70;;;;;;5015918;28;20033;-83
2022/05/23 03:11:01;;;;;;;4.88;2.58;;;17.90;96.70;;;;;;5032199;28;20034;-83
2022/05/23 03:13:28;;;;;;;5.45;2.42;;;17.90;96.70;;;;;;5015925;28;20060;-83
2022/05/23 03:15:55;;;;;;;7.10;2.60;;;17.90;96.70;;;;;;5032039;28;20075;-83
2022/05/23 03:18:24;;;;;;;4.35;2.63;;;17.90;96.70;;;;;;5032240;28;20374;-84
2022/05/23 03:21:01;;;;;;;5.50;2.50;;;17.90;96.70;;;;;;5032410;28;20025;-83
2022/05/23 03:29:00;;;;;;;4.57;2.40;;;17.80;96.80;;;;;;5032082;28;20033;-83
2022/05/23 03:31:30;;;;;;;5.15;2.53;;;17.80;96.90;;;;;;5032092;28;20052;-83
2022/05/23 03:33:56;;;;;;;5.18;2.40;;;17.80;97.00;;;;;;5032006;28;20147;-84
2022/05/23 03:36:22;;;;;;;5.93;2.35;;;17.80;96.90;;;;;;5031758;28;20026;-83
2022/05/23 03:38:48;;;;;;;5.88;2.15;;;17.80;97.00;;;;;;5031691;28;20520;-83
2022/05/23 03:41:14;;;;;;;3.78;2.17;;;17.80;97.00;;;;;;5031458;28;20033;-83
2022/05/23 03:43:40;;;;;;;4.78;2.40;;;17.80;97.10;;;;;;5031422;28;20037;-83
2022/05/23 03:46:12;;;;;;;6.10;2.35;;;17.80;97.20;;;;;;5032408;28;20090;-83
2022/05/23 03:48:38;;;;;;;5.38;2.83;;;17.70;97.20;;;;;;5031134;28;20033;-83
2022/05/23 03:51:05;;;;;;;5.80;2.35;;;17.60;97.20;;;;;;5031492;28;20079;-83
2022/05/23 03:53:32;;;;;;;6.88;3.03;;;17.60;97.20;;;;;;5031384;28;20030;-83
2022/05/23 03:56:03;;;;;;;5.00;2.67;;;17.60;97.30;;;;;;5031049;28;20032;-83
2022/05/23 03:58:34;;;;;;;5.97;2.88;;;17.60;97.50;;;;;;5031121;28;20029;-83
2022/05/23 04:01:23;;;;;;;6.80;2.78;;;17.60;97.60;;;;;;5031187;28;20103;-83
2022/05/23 04:03:57;;;;;;;6.03;2.58;;;17.50;97.80;;;;;;5031324;28;20037;-83
2022/05/23 04:06:23;;;;;;;5.90;2.88;;;17.50;98.10;;;;;;5030864;28;20033;-83
2022/05/23 04:08:56;;;;;;;4.97;2.92;;;17.50;98.40;;;;;;5015508;28;20032;-83
2022/05/23 04:11:23;;;;;;;6.05;3.15;;;17.50;98.50;;;;;;5030741;28;20401;-83
2022/05/23 04:13:49;;;;;;;5.30;2.70;;;17.50;98.70;;;;;;5031090;28;20029;-83
2022/05/23 04:16:14;;;;;;;5.20;2.50;;;17.40;98.80;;;;;;5030802;28;20025;-83
2022/05/23 04:18:45;;;;;;;6.45;2.63;;;17.50;98.80;;;;;;5030826;28;20028;-83
2022/05/23 04:21:10;;;;;;;6.78;2.70;;;17.50;98.90;;;;;;5030807;28;20116;-83
2022/05/23 04:23:39;;;;;;;6.65;2.95;;;17.50;99.00;;;;;;5014832;28;20033;-83
2022/05/23 04:26:09;;;;;;;7.45;3.50;;;17.50;99.10;;;;;;5014044;28;20060;-83
2022/05/23 04:28:39;;;;;;;5.30;3.20;;;17.50;99.20;;;;;;5030497;28;20135;-83
2022/05/23 04:31:05;;;;;;;;;;;17.50;99.30;;;;;;5031035;28;20401;-83
2022/05/23 04:36:41;;;;;;;5.97;3.05;;;17.60;99.60;;;;;;5030308;28;20032;-83
2022/05/23 04:39:07;;;;;;;6.95;3.80;;;17.60;99.70;;;;;;5030258;28;20112;-83
2022/05/23 04:41:36;;;;;;;7.65;3.65;;;17.60;99.90;;;;;;5030502;28;20025;-83
2022/05/23 04:44:02;;;;;;;6.88;3.30;;;17.60;99.90;;;;;;5030345;28;20038;-81
2022/05/23 04:46:29;;;;;;;8.48;4.15;;;17.70;99.90;;;;;;5044615;23;20450;-67
2022/05/23 04:52:09;;;;;;;7.75;4.43;;;17.70;99.90;;;;;;5030344;28;20032;-67
2022/05/23 04:54:40;;;;;;;7.05;4.00;;;17.80;99.90;;;;;;5030021;28;20034;-67
2022/05/23 04:57:07;;;;;;;7.32;3.58;;;17.80;99.90;;;;;;5030010;28;20048;-67
2022/05/23 04:59:35;;;;;;;8.65;4.32;;;17.80;99.90;;;;;;5029963;28;20498;-67
2022/05/23 05:02:04;;;;;;;8.00;4.57;;;17.80;99.90;;;;;;5030429;28;20037;-67
2022/05/23 05:04:32;;;;;;;9.70;4.63;;;17.80;99.90;;;;;;5030158;28;20128;-67
2022/05/23 05:06:58;;;;;;;9.40;4.40;;;17.80;99.90;;;;;;5030046;28;20029;-67
2022/05/23 05:09:25;;;;;;;5.93;4.15;;;17.90;99.90;;;;;;5029874;28;20065;-67
2022/05/23 05:12:00;;;;;;;6.10;3.60;;;18.00;99.90;;;;;;5030106;28;20041;-67
2022/05/23 05:14:30;;;;;;;6.78;4.00;;;18.00;99.90;;;;;;5029873;28;20036;-67
2022/05/23 05:17:02;;;;;;;8.50;4.03;;;18.00;99.90;;;;;;5030179;28;20087;-68
2022/05/23 05:19:30;;;;;;;8.65;3.70;;;18.10;99.90;;;;;;5029752;28;20030;-67
2022/05/23 05:22:25;;;;;;;6.63;3.88;;;18.10;99.90;;;;;;5031051;28;20049;-67
2022/05/23 05:25:13;;;;;;;9.15;4.18;;;18.10;99.90;;;;;;5030936;28;20034;-67
2022/05/23 05:28:00;;;;;;;7.82;4.60;;;18.10;99.90;;;;;;5030450;28;20030;-67
2022/05/23 05:30:26;;;;;;;8.60;4.00;;;18.20;99.90;;;;;;5029442;28;20130;-67
2022/05/23 05:32:58;;;;;;;9.70;4.15;;;18.20;99.90;;;;;;5031032;28;20060;-67
2022/05/23 05:35:34;;;;;;;6.95;4.07;;;18.20;99.90;;;;;;5030908;28;20113;-67
2022/05/23 05:38:05;;;;;;;8.27;4.53;;;18.20;99.90;;;;;;5030780;28;20116;-68
2022/05/23 05:40:35;;;;;;;10.60;4.28;;;18.30;99.90;;;;;;5029506;28;20036;-67
2022/05/23 05:43:10;;;;;;;11.38;4.90;;;18.30;99.90;;;;;;5030999;28;20036;-67
2022/05/23 05:45:42;;;;;;;9.05;4.55;;;18.30;99.90;;;;;;5029443;28;20041;-68
2022/05/23 05:48:40;;;;;;;8.18;4.38;;;18.40;99.90;;;;;;5026668;28;20068;-67
2022/05/23 05:51:11;;;;;;;9.45;4.90;;;18.40;99.90;;;;;;5029504;28;20033;-68
2022/05/23 05:53:44;;;;;;;8.73;4.82;;;18.40;99.90;;;;;;5029449;28;20104;-67
2022/05/23 05:56:19;;;;;;;14.65;4.72;;;18.50;99.90;;;;;;5029519;28;20033;-67
2022/05/23 05:58:45;;;;;;;7.45;4.28;;;18.50;99.90;;;;;;5029263;28;20214;-67
2022/05/23 06:01:13;;;;;;;10.98;4.88;;;18.50;99.90;;;;;;5029434;28;20116;-67
2022/05/23 06:03:40;;;;;;;9.07;3.97;;;18.50;99.90;;;;;;5029458;28;20128;-68
2022/05/23 06:11:49;;;;;;;9.15;4.60;;;18.60;99.90;;;;;;5033309;28;20029;-67
2022/05/23 06:14:17;;;;;;;9.30;4.30;;;18.60;99.90;;;;;;5033207;28;20025;-67
2022/05/23 06:16:45;;;;;;;7.20;4.32;;;18.60;99.90;;;;;;5033048;28;20036;-67
2022/05/23 06:19:20;;;;;;;6.57;4.05;;;18.70;99.90;;;;;;5033065;28;20059;-67
2022/05/23 06:22:04;;;;;;;9.88;4.40;;;18.70;99.90;;;;;;5033248;28;20025;-68
2022/05/23 06:24:30;;;;;;;7.63;4.47;;;18.70;99.90;;;;;;5033108;28;20052;-67
2022/05/23 06:27:01;;;;;;;5.40;3.80;;;18.70;99.90;;;;;;5033032;28;20389;-68
2022/05/23 06:29:33;;;;;;;10.40;4.38;;;18.70;99.90;;;;;;5034151;28;20037;-68
2022/05/23 06:32:19;;;;;;;8.77;3.92;;;18.80;99.90;;;;;;5034116;28;20110;-67
2022/05/23 06:34:45;;;;;;;9.80;4.03;;;18.80;99.90;;;;;;5032703;28;20064;-67
2022/05/23 06:37:11;;;;;;;8.30;4.03;;;18.90;99.90;;;;;;5032599;28;20033;-67
2022/05/23 06:39:37;;;;;;;7.88;3.95;;;18.90;99.90;;;;;;5032631;28;20025;-67
2022/05/23 06:42:22;;;;;;;8.75;4.53;;;18.90;99.90;;;;;;5034372;28;20083;-67
2022/05/23 06:45:14;;;;;;;7.68;4.18;;;18.90;99.90;;;;;;5031813;28;20045;-68
2022/05/23 06:48:19;;;;;;;6.60;4.07;;;19.00;99.90;;;;;;4991997;28;20069;-67
2022/05/23 06:50:55;;;;;;;8.77;4.53;;;19.10;99.90;;;;;;4991932;28;20030;-67
2022/05/23 06:53:31;;;;;;;9.32;4.00;;;19.10;99.90;;;;;;5016725;28;20037;-67
2022/05/23 06:56:14;;;;;;;7.30;3.70;;;19.20;99.90;;;;;;5032451;28;20029;-67
2022/05/23 06:58:42;;;;;;;5.90;3.33;;;19.20;99.90;;;;;;5032397;28;20029;-67
2022/05/23 07:01:23;;;;;;;7.70;3.15;;;19.30;99.90;;;;;;5032578;28;20025;-67
2022/05/23 07:04:17;;;;;;;7.55;3.72;;;19.30;99.90;;;;;;5032431;28;20297;-67
2022/05/23 07:12:24;;;;;;;5.68;3.03;;;19.50;99.90;;;;;;5032268;28;20029;-67
2022/05/23 07:14:54;;;;;;;5.38;2.60;;;19.50;99.60;;;;;;5032089;28;20041;-67
2022/05/23 07:17:21;;;;;;;4.93;2.70;;;19.50;99.40;;;;;;5032090;28;20033;-67
2022/05/23 07:20:14;;;;;;;5.47;2.53;;;19.60;99.30;;;;;;5031794;28;20120;-67
2022/05/23 07:22:51;;;;;;;6.72;2.60;;;19.60;99.10;;;;;;5032050;28;20026;-67
2022/05/23 07:25:17;;;;;;;4.47;2.10;;;19.60;99.10;;;;;;5031928;28;20087;-67
2022/05/23 07:27:43;;;;;;;5.93;2.78;;;19.70;99.20;;;;;;5031935;28;20029;-67
2022/05/23 07:30:09;;;;;;;8.00;2.67;;;19.70;99.10;;;;;;5031753;28;20048;-67
2022/05/23 07:32:41;;;;;;;5.88;2.35;;;19.70;98.80;;;;;;5031990;28;20101;-67
2022/05/23 07:35:10;;;;;;;4.63;1.90;;;19.80;98.30;;;;;;5031859;28;20034;-67
2022/05/23 07:37:36;;;;;;;4.50;2.03;;;19.80;98.40;;;;;;5031656;28;20021;-65
2022/05/23 07:40:05;;;;;;;5.57;2.20;;;19.80;98.50;;;;;;5031596;28;20065;-65
2022/05/23 07:42:44;;;;;;;3.72;2.13;;;19.80;98.60;;;;;;5033055;28;20029;-67
2022/05/23 07:45:12;;;;;;;4.97;2.60;;;19.90;98.60;;;;;;5031943;28;20398;-67
2022/05/23 07:47:40;;;;;;;4.03;2.15;;;19.90;98.90;;;;;;5031500;28;20025;-67
2022/05/23 07:50:19;;;;;;;7.72;2.80;;;19.90;98.30;;;;;;5031770;28;20124;-67
2022/05/23 08:00:31;;;;;;;5.28;2.60;;;19.90;98.20;;;;;;5031263;28;20502;-68
2022/05/23 08:01:07;;;;;;;5.47;2.40;;;20.10;97.00;;;;;;5031322;28;20041;-67
2022/05/23 08:03:34;;;;;;;6.55;2.63;;;20.10;96.90;;;;;;5031217;28;20057;-67
2022/05/23 08:06:25;;;;;;;5.28;2.40;;;20.20;96.80;;;;;;5031089;28;20032;-67
2022/05/23 08:08:51;;;;;;;13.45;2.90;;;20.20;96.50;;;;;;5014471;28;20513;-68
2022/05/23 08:11:18;;;;;;;4.28;1.88;;;20.30;95.70;;;;;;5031208;28;20504;-67
2022/05/23 08:14:04;;;;;;;6.15;1.98;;;20.30;94.90;;;;;;5031178;28;20112;-67
2022/05/23 08:16:35;;;;;;;4.53;2.10;;;20.40;94.60;;;;;;5030869;28;20057;-67
2022/05/23 08:19:06;;;;;;;4.05;2.13;;;20.40;94.60;;;;;;5030710;28;20083;-65
2022/05/23 08:21:34;;;;;;;5.97;2.35;;;20.50;94.40;;;;;;5030920;28;20025;-65
2022/05/23 08:24:01;;;;;;;3.85;1.80;;;20.50;94.40;;;;;;5030896;28;20033;-65
2022/05/23 08:26:33;;;;;;;6.28;2.30;;;20.60;94.30;;;;;;5030653;28;20033;-65
2022/05/23 08:28:59;;;;;;;7.22;2.70;;;20.70;94.40;;;;;;5030780;28;20083;-65
2022/05/23 08:31:32;;;;;;;6.00;2.20;;;20.70;94.20;;;;;;5029940;28;20035;-65
2022/05/23 08:34:06;;;;;;;3.67;2.35;;;20.70;94.00;;;;;;5030681;28;20033;-65
2022/05/23 08:36:33;;;;;;;4.47;2.30;;;20.80;93.90;;;;;;5030589;28;20022;-65
2022/05/23 08:39:01;;;;;;;4.30;1.98;;;20.80;93.60;;;;;;5030608;28;20079;-65
2022/05/23 08:41:40;;;;;;;6.05;2.78;;;20.80;93.80;;;;;;5030594;28;20025;-66
2022/05/23 08:44:41;;;;;;;6.30;2.40;;;20.80;93.50;;;;;;5031594;28;20513;-66
2022/05/23 08:47:22;;;;;;;4.03;2.38;;;20.90;93.40;;;;;;5030250;28;20053;-66
2022/05/23 08:50:11;;;;;;;4.10;2.38;;;20.90;93.40;;;;;;5030218;28;20112;-66
2022/05/23 08:52:59;;;;;;;4.72;2.53;;;20.90;93.60;;;;;;5031557;28;20448;-66
2022/05/23 08:55:54;;;;;;;4.78;2.10;;;20.90;93.90;;;;;;5002920;28;20100;-66
2022/05/23 08:58:52;;;;;;;5.65;2.42;;;21.00;94.10;;;;;;5031697;28;20036;-66
2022/05/23 09:01:25;;;;;;;6.75;2.30;;;21.00;93.90;;;;;;5028430;28;20433;-66
2022/05/23 09:04:00;;;;;;;7.65;2.40;;;21.00;93.60;;;;;;5030176;28;20048;-66
2022/05/23 09:06:34;;;;;;;9.48;3.15;;;21.00;93.50;;;;;;5030053;28;20028;-67
2022/05/23 09:09:07;;;;;;;19.10;4.82;;;21.10;93.30;;;;;;5031297;28;20060;-66
2022/05/23 09:11:48;;;;;;;11.23;3.20;;;21.10;93.00;;;;;;5031683;28;20029;-66
2022/05/23 09:14:17;;;;;;;6.53;2.30;;;21.10;93.10;;;;;;5031427;28;20037;-66
2022/05/23 09:16:54;;;;;;;4.65;2.20;;;21.10;93.30;;;;;;5031429;28;20060;-66
2022/05/23 09:19:42;;;;;;;4.40;2.38;;;21.10;93.60;;;;;;5031034;28;20021;-66
2022/05/23 09:22:34;;;;;;;5.47;2.15;;;21.10;93.80;;;;;;5031077;28;20022;-66
2022/05/23 09:25:04;;;;;;;4.65;2.20;;;21.10;93.70;;;;;;5031182;28;20390;-66
2022/05/23 09:27:35;;;;;;;8.25;2.20;;;21.10;94.00;;;;;;5030893;28;20075;-66
2022/05/23 09:30:06;;;;;;;7.22;2.28;;;21.10;93.50;;;;;;5031186;28;20039;-66
2022/05/23 09:32:40;;;;;;;6.32;2.45;;;21.10;93.60;;;;;;5031052;28;20117;-66
2022/05/23 09:35:19;;;;;;;6.47;2.60;;;21.10;93.70;;;;;;5031053;28;20029;-66
2022/05/23 09:37:49;;;;;;;8.88;2.92;;;21.20;94.10;;;;;;5030794;28;20029;-66
2022/05/23 09:40:29;;;;;;;14.02;4.00;;;21.20;94.30;;;;;;5029466;28;20394;-66
2022/05/23 09:49:08;;;;;;;9.60;2.95;;;21.30;93.90;;;;;;5029407;28;20032;-65
2022/05/23 09:52:00;;;;;;;5.57;2.45;;;21.30;94.00;;;;;;5030815;28;20029;-65
2022/05/23 09:54:46;;;;;;;8.65;2.83;;;21.50;93.30;;;;;;5029479;28;20026;-65
2022/05/23 09:57:52;;;;;;;5.57;2.20;;;21.60;92.90;;;;;;5030617;28;20470;-65
2022/05/23 10:00:18;;;;;;;9.15;2.60;;;21.60;92.80;;;;;;5029805;28;20124;-66
2022/05/23 10:03:01;;;;;;;4.55;2.10;;;21.70;92.80;;;;;;5030729;28;20117;-66
2022/05/23 10:05:30;;;;;;;13.38;2.67;;;21.70;92.90;;;;;;5030700;28;20432;-66
2022/05/23 10:08:09;;;;;;;10.43;2.70;;;21.70;92.80;;;;;;5030598;28;20409;-66
2022/05/23 10:10:38;;;;;;;9.50;2.53;;;21.80;92.80;;;;;;5030768;28;20082;-65
2022/05/23 10:13:28;;;;;;;5.03;2.10;;;21.90;92.60;;;;;;5030785;28;20028;-65
2022/05/23 10:16:13;;;;;;;4.03;1.80;;;21.90;92.40;;;;;;5030976;28;20056;-66
2022/05/23 10:18:51;;;;;;;6.50;2.38;;;22.00;92.50;;;;;;5030368;28;20022;-66
2022/05/23 10:21:23;;;;;;;6.43;2.10;;;22.10;92.60;;;;;;5029261;28;20033;-65
2022/05/23 10:24:11;;;;;;;6.22;2.30;;;22.20;92.80;;;;;;5030757;28;20033;-66
2022/05/23 10:26:51;;;;;;;4.43;2.10;;;22.20;92.40;;;;;;5028928;28;20053;-65
2022/05/23 10:29:26;;;;;;;4.10;1.73;;;22.20;92.50;;;;;;5030541;28;20032;-66
2022/05/23 10:32:10;;;;;;;4.82;1.80;;;22.30;92.30;;;;;;5030493;28;20394;-65
2022/05/23 10:34:50;;;;;;;4.75;2.13;;;22.30;93.00;;;;;;5030306;28;20378;-66
2022/05/23 10:37:20;;;;;;;7.25;2.47;;;22.30;93.00;;;;;;5030473;28;20037;-66
2022/05/23 10:42:55;;;;;;;7.53;3.08;;;22.40;92.80;;;;;;5030442;28;20036;-65
2022/05/23 10:45:55;;;;;;;13.43;2.95;;;22.40;92.80;;;;;;5043789;23;20699;-65
2022/05/23 10:48:45;;;;;;;5.32;2.35;;;22.40;92.80;;;;;;5030389;28;20038;-64
2022/05/23 10:51:17;;;;;;;4.20;2.10;;;22.40;92.60;;;;;;5029164;28;20033;-65
2022/05/23 10:54:00;;;;;;;7.40;2.55;;;22.40;92.70;;;;;;5031439;28;20029;-65
2022/05/23 10:56:49;;;;;;;6.50;2.38;;;22.50;92.80;;;;;;5033842;28;20026;-64
2022/05/23 10:59:35;;;;;;;9.23;2.67;;;22.50;93.30;;;;;;5028026;28;20064;-67
2022/05/23 11:02:22;;;;;;;4.22;2.05;;;22.50;93.30;;;;;;5033725;28;20105;-66
2022/05/23 11:04:59;;;;;;;5.05;2.40;;;22.60;93.10;;;;;;5034044;28;20029;-64
2022/05/23 11:07:36;;;;;;;5.83;2.93;;;22.60;93.30;;;;;;5033649;28;20078;-66
2022/05/23 11:10:15;;;;;;;4.22;2.10;;;22.50;92.80;;;;;;5033464;28;20311;-67
2022/05/23 11:13:18;;;;;;;6.07;2.30;;;22.60;92.70;;;;;;5033631;28;20033;-66
2022/05/23 11:16:25;;;;;;;0.95;0.50;;;22.50;92.80;;;;;;5033055;28;20036;-68
2022/05/23 11:18:59;;;;;;;3.25;1.60;;;22.30;94.60;;;;;;4992239;28;20053;-68
2022/05/23 11:22:03;;;;;;;5.18;2.42;;;22.20;94.00;;;;;;4992992;28;20034;-67
2022/05/23 11:24:41;;;;;;;7.30;2.10;;;22.20;94.00;;;;;;5024845;28;20045;-69
2022/05/23 11:35:59;;;;;;;6.32;2.10;;;22.10;94.60;;;;;;5032908;28;20092;-65
2022/05/23 11:38:28;;;;;;;4.25;1.98;;;22.10;94.50;;;;;;5033020;28;20034;-65
2022/05/23 11:41:04;;;;;;;4.25;2.03;;;22.00;94.80;;;;;;5032977;28;20549;-65
2022/05/23 11:43:30;;;;;;;5.53;2.10;;;22.10;94.70;;;;;;5032881;28;20060;-66
2022/05/23 11:46:05;;;;;;;4.53;2.22;;;22.10;94.60;;;;;;5032746;28;20092;-66
2022/05/23 11:48:34;;;;;;;5.45;2.28;;;22.20;94.20;;;;;;5032913;28;20022;-66
2022/05/23 11:51:15;;;;;;;5.10;2.17;;;22.30;93.90;;;;;;5032782;28;20032;-66
2022/05/23 11:54:11;;;;;;;5.90;2.63;;;22.40;93.70;;;;;;5032634;28;20037;-66
2022/05/23 11:57:16;;;;;;;3.85;2.35;;;22.50;93.60;;;;;;5031154;28;20029;-66
2022/05/23 11:59:45;;;;;;;5.00;2.75;;;22.60;93.30;;;;;;5032418;28;20036;-66
2022/05/23 12:02:11;;;;;;;4.57;2.22;;;22.70;93.20;;;;;;5032561;28;20045;-67
2022/05/23 12:04:50;;;;;;;5.82;2.17;;;22.80;93.50;;;;;;5032396;28;20099;-67
2022/05/23 12:07:44;;;;;;;6.00;1.80;;;22.90;93.00;;;;;;5032217;28;20029;-67
2022/05/23 12:10:22;;;;;;;6.88;1.90;;;23.00;93.00;;;;;;5027211;28;20037;-67
2022/05/23 12:12:57;;;;;;;3.35;1.83;;;23.10;93.20;;;;;;5032536;28;20167;-67
2022/05/23 12:15:46;;;;;;;4.20;1.80;;;23.10;93.40;;;;;;5032513;28;20033;-67
2022/05/23 12:18:23;;;;;;;5.60;2.03;;;23.10;93.40;;;;;;5032208;28;20040;-67
2022/05/23 12:20:54;;;;;;;4.17;2.00;;;23.30;93.10;;;;;;5032099;28;20382;-67
2022/05/23 12:23:39;;;;;;;8.32;2.30;;;23.40;92.90;;;;;;5032171;28;20486;-66
2022/05/23 12:26:17;;;;;;;4.72;2.10;;;23.60;92.90;;;;;;5032232;28;20033;-66
2022/05/23 12:28:56;;;;;;;7.35;2.50;;;23.70;92.80;;;;;;5032032;28;20029;-66
2022/05/23 12:31:37;;;;;;;15.40;3.42;;;23.80;92.80;;;;;;5031970;28;20025;-66
2022/05/23 12:34:02;;;;;;;9.88;3.17;;;23.80;92.70;;;;;;5031898;28;20113;-66
2022/05/23 12:36:31;;;;;;;5.60;2.60;;;23.80;92.70;;;;;;5031775;28;20053;-66
2022/05/23 12:38:57;;;;;;;;;;;23.70;92.80;;;;;;5032286;28;20021;-66
2022/05/23 12:41:35;;;;;;;8.77;2.58;;;23.70;92.90;;;;;;5031830;28;19913;-67
2022/05/23 12:44:19;;;;;;;7.38;2.20;;;23.70;93.10;;;;;;5031929;28;20029;-67
2022/05/23 12:47:04;;;;;;;11.10;2.80;;;23.70;92.90;;;;;;5031549;28;20056;-66
2022/05/23 12:49:42;;;;;;;7.28;2.40;;;23.70;93.10;;;;;;5031606;28;20084;-67
2022/05/23 12:52:27;;;;;;;8.02;2.35;;;23.70;93.20;;;;;;5030443;28;20049;-67
2022/05/23 12:55:05;;;;;;;6.00;2.25;;;23.80;93.20;;;;;;5031655;28;20029;-67
2022/05/23 12:57:58;;;;;;;6.90;2.28;;;23.70;93.10;;;;;;5031507;28;20028;-67
2022/05/23 13:00:35;;;;;;;5.70;2.40;;;23.70;93.30;;;;;;5031468;28;20436;-67
2022/05/23 13:03:40;;;;;;;8.38;2.78;;;23.70;93.30;;;;;;5031460;28;20026;-67
2022/05/23 13:06:25;;;;;;;10.68;2.53;;;23.60;93.30;;;;;;5029564;28;20048;-67
2022/05/23 13:09:09;;;;;;;8.60;2.67;;;23.50;93.70;;;;;;5031350;28;20112;-67
2022/05/23 13:11:43;;;;;;;3.10;2.00;;;23.30;94.00;;;;;;5031158;28;20489;-67
2022/05/23 13:14:10;;;;;;;8.23;2.95;;;23.20;94.00;;;;;;5031459;28;20060;-67
2022/05/23 13:16:39;;;;;;;6.82;3.00;;;23.20;94.30;;;;;;5029258;28;20022;-67
2022/05/23 13:22:11;;;;;;;4.47;2.58;;;22.90;94.80;;;;;;5029187;28;20072;-66
2022/05/23 13:24:55;;;;;;;5.57;2.10;;;22.90;95.20;;;;;;5030194;28;20393;-66
2022/05/23 13:27:37;;;;;;;5.15;2.50;;;22.80;95.90;;;;;;5030459;28;20100;-66
2022/05/23 13:30:17;;;;;;;7.13;2.47;;;22.70;97.30;;;;;;5030475;28;20029;-66
2022/05/23 13:33:01;;;;;;;9.98;3.00;;;22.70;98.20;;;;;;5030622;28;20389;-66
2022/05/23 13:35:29;;;;;;;18.02;4.38;;;22.70;98.90;;;;;;5030537;28;20048;-67
2022/05/23 13:37:54;;;;;;;6.45;2.97;;;22.60;99.40;;;;;;5030399;28;20026;-66
2022/05/23 13:40:30;;;;;;;4.80;2.63;;;22.60;99.90;;;;;;5030430;28;20033;-67
2022/05/23 13:43:18;;;;;;;11.73;4.00;;;22.50;99.90;;;;;;5030547;28;20096;-66
2022/05/23 13:45:46;;;;;;;11.48;3.90;;;22.50;99.90;;;;;;5030081;28;20042;-66
2022/05/23 13:48:23;;;;;;;6.80;3.15;;;22.50;99.90;;;;;;5030558;28;20041;-66
2022/05/23 13:50:54;;;;;;;5.30;3.08;;;22.40;99.90;;;;;;5030280;28;20375;-67
2022/05/23 13:53:39;;;;;;;4.85;3.10;;;22.40;99.90;;;;;;5030245;28;20482;-66
2022/05/23 13:56:06;;;;;;;8.10;3.75;;;22.30;99.90;;;;;;5030138;28;20434;-66
2022/05/23 13:58:39;;;;;;;7.28;3.55;;;22.30;99.90;;;;;;5029141;28;20029;-67
2022/05/23 14:01:15;;;;;;;7.45;3.22;;;22.30;99.90;;;;;;5030198;28;20032;-66
2022/05/23 14:03:44;;;;;;;6.78;3.22;;;22.20;99.90;;;;;;5030340;28;20025;-67
2022/05/23 14:06:19;;;;;;;;;;;22.10;99.90;;;;;;5030478;28;20040;-66
2022/05/23 14:08:54;;;;;;;10.60;4.07;;;22.00;99.90;;;;;;5030677;28;19955;-66
2022/05/23 14:11:30;;;;;;;11.25;4.28;;;21.90;99.90;;;;;;5030414;28;20036;-66
2022/05/23 14:14:10;;;;;;;7.82;3.63;;;21.90;99.90;;;;;;5030160;28;20453;-66
2022/05/23 14:16:36;;;;;;;10.65;3.80;;;21.80;99.90;;;;;;5030132;28;20121;-66
2022/05/23 14:19:17;;;;;;;8.15;3.63;;;21.80;99.90;;;;;;5030288;28;20152;-67
2022/05/23 14:21:43;;;;;;;9.98;4.20;;;21.70;99.90;;;;;;5030335;28;20502;-66
2022/05/23 14:24:15;;;;;;;8.90;3.78;;;21.80;99.90;;;;;;5030032;28;20033;-66